Etusivu
METAR-TAF:

METAR-TAF

Lentoasemat :

Galápagossaaret, Ecuador

Leveyspiiri: 00-54S, Pituuspiiri: 089-36W, korkeus merenpinnasta: 6 m

Tämänhetkinen sää

Tämä raportti tehtiin 1 tunti ja 45 minuuttia sitten, kello 22.00 UTC
Tuuli 13 kn idästä/koillisesta
Lämpötila 28°C
Kosteus 74%
Ilmanpaine 1006 hPa
Näkyvyys 10 km tai enemmän
Hajanaisia pilviä 2000 ft:n korkeudessa

METAR: SEST 162200Z 07013KT 9999 SCT020 28/23 Q1006 RMK A2971

Aika: 17:45 (23:45 UTC)


TAF: puuttuu

Säähavainnot ja -ennusteet yli 4000 lentoasemalta (METAR- ja TAF-raportit).

Käytössä olevat sääasemat on merkitty karttaan keltaisilla ja punaisilla pisteillä.

Aseta hiiri pisteen päälle nähdäksesi sääaseman nimen.

Klikkaa sitten nähdäksesi säähavainnot ja -ennusteet.

Kartan vaihtaminen: klikkaa mustalla rastilla varustettuja vihreitä pisteitä, niin voit zoomata sisään; viivalla varustettua vihreää pistettä, niin voit zoomata ulos tai vihreitä nuolia, niin pääset viereisille kartoille.


METAR-TAF: